Time;durP1;ratioP1;P1;durP2;ratioP2;P2;SDS_P1;SDS_P2;PMS_P1;PMS_P2;Temp;Humidity;BMP_temperature;BMP_pressure;BME280_temperature;BME280_humidity;BME280_pressure;Samples;Min_cycle;Max_cycle;Signal;HPM_P1;HPM_P2
2023/06/14 00:00:11;;;;;;;2.72;1.48;;;;;;;21.31;41.26;101523.56;4995855;28;97646;-27
2023/06/14 00:02:38;;;;;;;2.85;1.20;;;;;;;21.32;41.23;101541.88;4994586;28;96624;-27
2023/06/14 00:05:05;;;;;;;2.10;1.27;;;;;;;21.22;41.35;101530.84;4995908;28;96773;-26
2023/06/14 00:07:42;;;;;;;5.70;1.50;;;;;;;21.21;41.82;101530.00;4994280;28;100872;-26
2023/06/14 00:10:08;;;;;;;2.97;1.60;;;;;;;21.24;41.16;101544.47;4996062;28;97666;-27
2023/06/14 00:12:34;;;;;;;2.97;1.60;;;;;;;21.19;41.42;101536.66;4993607;28;96509;-26
2023/06/14 00:15:01;;;;;;;2.90;1.42;;;;;;;21.19;41.43;101536.66;4996000;28;96791;-26
2023/06/14 00:17:29;;;;;;;4.13;1.35;;;;;;;21.11;41.74;101536.53;4994872;28;99712;-26
2023/06/14 00:19:56;;;;;;;3.08;1.38;;;;;;;21.06;41.87;101536.09;4994148;28;101373;-26
2023/06/14 00:22:24;;;;;;;1.23;1.00;;;;;;;21.07;41.99;101543.31;4994388;28;96683;-27
2023/06/14 00:24:50;;;;;;;2.42;1.40;;;;;;;21.05;43.01;101542.63;4994309;28;96936;-27
2023/06/14 00:27:15;;;;;;;3.05;1.40;;;;;;;20.93;42.65;101533.66;4993768;28;101244;-26
2023/06/14 00:29:40;;;;;;;2.30;1.33;;;;;;;20.94;42.60;101543.63;4995149;28;99130;-27
2023/06/14 00:32:06;;;;;;;3.25;1.52;;;;;;;20.95;42.85;101545.34;4995540;28;96736;-27
2023/06/14 00:34:32;;;;;;;2.55;1.27;;;;;;;20.93;42.60;101536.41;4993819;28;97007;-26
2023/06/14 00:36:57;;;;;;;2.53;1.30;;;;;;;20.91;42.40;101541.19;4994876;28;109981;-27
2023/06/14 00:39:22;;;;;;;1.63;1.05;;;;;;;20.85;43.07;101539.00;4995063;28;106381;-27
2023/06/14 00:41:48;;;;;;;2.38;1.50;;;;;;;20.83;42.95;101549.28;4995074;28;96799;-26
2023/06/14 00:44:16;;;;;;;2.38;1.40;;;;;;;20.81;43.73;101543.03;4994800;28;104832;-26
2023/06/14 00:46:42;;;;;;;2.58;1.30;;;;;;;20.77;43.25;101543.34;4993601;28;100768;-26
2023/06/14 00:49:08;;;;;;;3.22;1.10;;;;;;;20.78;43.63;101555.22;4995163;28;98246;-26
2023/06/14 00:51:34;;;;;;;5.63;1.33;;;;;;;20.72;44.57;101550.31;4993953;28;97212;-27
2023/06/14 00:54:00;;;;;;;2.58;1.33;;;;;;;20.69;43.89;101542.31;4995431;28;96905;-26
2023/06/14 00:56:27;;;;;;;4.65;1.40;;;;;;;20.66;43.90;101539.84;4993473;28;101548;-27
2023/06/14 00:58:53;;;;;;;2.58;1.42;;;;;;;20.63;43.56;101534.63;4993810;28;101173;-27
2023/06/14 01:01:18;;;;;;;2.95;1.52;;;;;;;20.60;44.55;101551.44;4995074;28;96767;-26
2023/06/14 01:03:44;;;;;;;4.13;1.58;;;;;;;20.48;44.47;101535.03;4995153;28;96837;-27
2023/06/14 01:06:15;;;;;;;3.83;1.50;;;;;;;20.56;44.97;101542.59;4994222;28;98102;-27
2023/06/14 01:09:17;;;;;;;3.55;1.27;;;;;;;20.55;44.91;101549.97;4994976;28;97815;-27
2023/06/14 01:12:03;;;;;;;3.20;1.67;;;;;;;20.48;45.99;101545.16;4983602;28;96772;-26
2023/06/14 01:14:30;;;;;;;3.67;1.25;;;;;;;20.45;44.81;101539.91;4994835;28;96684;-28
2023/06/14 01:16:59;;;;;;;2.88;1.60;;;;;;;20.41;45.19;101550.34;4993196;28;100844;-27
2023/06/14 01:19:25;;;;;;;2.35;1.40;;;;;;;20.40;45.29;101539.47;4993098;28;100941;-26
2023/06/14 01:21:50;;;;;;;2.95;1.60;;;;;;;20.39;44.70;101544.13;4993380;28;97450;-26
2023/06/14 01:24:19;;;;;;;2.53;1.38;;;;;;;20.34;45.00;101549.19;4995103;28;96865;-26
2023/06/14 01:26:45;;;;;;;6.35;1.60;;;;;;;20.31;45.37;101544.84;4992807;28;99059;-27
2023/06/14 01:29:12;;;;;;;3.53;1.33;;;;;;;20.28;44.78;101536.84;4994484;28;97864;-27
2023/06/14 01:31:41;;;;;;;2.30;1.45;;;;;;;20.28;44.78;101539.59;4992956;28;96710;-26
2023/06/14 01:34:07;;;;;;;2.53;1.52;;;;;;;20.24;45.17;101538.16;4992705;28;97056;-26
2023/06/14 01:36:33;;;;;;;2.88;1.30;;;;;;;20.20;44.75;101542.19;4992761;28;99107;-27
2023/06/14 01:38:59;;;;;;;2.78;1.52;;;;;;;20.16;45.30;101543.47;4994513;28;98049;-27
2023/06/14 01:41:26;;;;;;;7.57;1.50;;;;;;;20.07;45.13;101533.28;4993309;28;96597;-27
2023/06/14 01:43:52;;;;;;;1.63;1.20;;;;;;;20.03;44.97;101543.72;4993215;28;96827;-27
2023/06/14 01:46:19;;;;;;;4.47;1.23;;;;;;;20.04;45.39;101536.34;4992708;28;99496;-26
2023/06/14 01:48:45;;;;;;;4.60;1.35;;;;;;;19.95;44.96;101540.81;4993123;28;100859;-26
2023/06/14 01:51:10;;;;;;;2.42;1.50;;;;;;;19.91;44.79;101544.84;4994321;28;96561;-27
2023/06/14 01:53:36;;;;;;;3.47;1.77;;;;;;;19.87;45.11;101541.47;4994373;28;96659;-28
2023/06/14 01:56:01;;;;;;;3.53;1.42;;;;;;;19.78;45.50;101530.44;4993873;28;97766;-27
2023/06/14 01:58:27;;;;;;;2.17;1.35;;;;;;;19.79;45.05;101534.94;4993963;28;99289;-26
2023/06/14 02:00:55;;;;;;;1.73;1.08;;;;;;;19.77;45.21;101536.97;4994566;28;96479;-28
2023/06/14 02:03:20;;;;;;;2.95;1.40;;;;;;;19.67;45.47;101529.50;4993129;28;96917;-27
2023/06/14 02:05:46;;;;;;;2.60;1.40;;;;;;;19.71;45.29;101541.09;4993905;28;97365;-26
2023/06/14 02:08:11;;;;;;;3.08;1.50;;;;;;;19.71;45.74;101546.59;4994120;28;97983;-26
2023/06/14 02:10:36;;;;;;;2.63;1.33;;;;;;;19.73;45.60;101544.59;4994394;28;96625;-27
2023/06/14 02:13:02;;;;;;;3.33;1.45;;;;;;;19.70;45.84;101544.88;4994783;28;96816;-26
2023/06/14 02:15:33;;;;;;;2.15;1.38;;;;;;;19.67;46.12;101543.25;4993996;28;98032;-26
2023/06/14 02:17:58;;;;;;;3.72;1.17;;;;;;;19.68;45.65;101538.66;4993842;28;99267;-27
2023/06/14 02:20:24;;;;;;;2.50;1.42;;;;;;;19.60;45.81;101536.56;4993504;28;97000;-26
2023/06/14 02:22:49;;;;;;;2.80;1.55;;;;;;;19.58;46.08;101534.94;4993578;28;105155;-26
2023/06/14 02:25:15;;;;;;;2.65;1.50;;;;;;;19.56;46.27;101542.44;4993596;28;99145;-26
2023/06/14 02:27:40;;;;;;;1.67;1.17;;;;;;;19.52;45.77;101545.47;4993624;28;99282;-27
2023/06/14 02:30:06;;;;;;;2.30;1.40;;;;;;;19.49;46.29;101545.72;4993773;28;99136;-26
2023/06/14 02:32:31;;;;;;;1.92;1.00;;;;;;;19.45;45.98;101540.63;4993828;28;96882;-27
2023/06/14 02:34:57;;;;;;;2.80;1.40;;;;;;;19.48;46.46;101549.50;4992993;28;99177;-27
2023/06/14 02:37:22;;;;;;;5.43;1.60;;;;;;;19.40;46.50;101552.06;4996369;28;109370;-27
2023/06/14 02:39:48;;;;;;;2.67;1.30;;;;;;;19.40;46.10;101557.56;4997506;28;96480;-27
2023/06/14 02:42:13;;;;;;;2.72;1.35;;;;;;;19.35;46.42;101545.22;4997324;28;96859;-26
2023/06/14 02:44:38;;;;;;;2.50;1.52;;;;;;;19.36;45.97;101545.09;4996180;28;99035;-26
2023/06/14 02:47:04;;;;;;;2.95;1.40;;;;;;;19.34;45.93;101557.22;4996892;28;99159;-27
2023/06/14 02:49:30;;;;;;;3.30;1.40;;;;;;;19.28;46.26;101547.63;4995682;28;96757;-28
2023/06/14 02:51:55;;;;;;;4.32;1.25;;;;;;;19.30;46.57;101548.34;4997144;28;96820;-27
2023/06/14 02:54:21;;;;;;;3.20;1.20;;;;;;;19.26;46.14;101556.00;4996905;28;97885;-27
2023/06/14 02:56:46;;;;;;;2.55;1.40;;;;;;;19.18;46.05;101538.44;4996007;28;96872;-27
2023/06/14 02:59:13;;;;;;;3.20;1.60;;;;;;;19.26;45.82;101563.41;4997119;28;96477;-26
2023/06/14 03:01:39;;;;;;;2.42;1.25;;;;;;;19.22;46.09;101561.91;4995998;28;96977;-26
2023/06/14 03:04:04;;;;;;;2.65;1.23;;;;;;;19.13;46.09;101555.31;4996786;28;97911;-26
2023/06/14 03:06:30;;;;;;;2.20;1.30;;;;;;;19.15;46.35;101566.19;4996448;28;97958;-27
2023/06/14 03:08:59;;;;;;;5.10;1.50;;;;;;;19.14;45.88;101568.06;4996168;28;96591;-26
2023/06/14 03:11:28;;;;;;;4.57;1.35;;;;;;;19.15;46.20;101566.19;4995437;28;96811;-26
2023/06/14 03:13:53;;;;;;;2.85;1.33;;;;;;;19.08;46.07;101561.22;4995250;28;101056;-27
2023/06/14 03:16:21;;;;;;;2.40;1.30;;;;;;;19.03;46.15;101559.88;4996314;28;99314;-27
2023/06/14 03:18:53;;;;;;;2.70;1.45;;;;;;;19.09;46.28;101571.22;4995071;28;96645;-26
2023/06/14 03:21:20;;;;;;;2.03;1.25;;;;;;;19.07;46.01;101572.34;4995440;28;96774;-28
2023/06/14 03:23:45;;;;;;;3.55;1.40;;;;;;;18.98;46.46;101570.38;4996172;28;100042;-27
2023/06/14 03:26:14;;;;;;;2.67;1.55;;;;;;;19.01;46.34;101579.22;4996646;28;97820;-26
2023/06/14 03:28:41;;;;;;;3.08;1.50;;;;;;;19.00;46.34;101577.50;4996628;28;96502;-27
2023/06/14 03:31:06;;;;;;;2.72;1.55;;;;;;;18.91;46.79;101578.28;4995038;28;96870;-27
2023/06/14 03:33:32;;;;;;;5.90;1.50;;;;;;;18.92;46.38;101585.50;4995237;28;97874;-27
2023/06/14 03:35:57;;;;;;;2.53;1.33;;;;;;;18.93;46.10;101594.63;4996153;28;99129;-26
2023/06/14 03:38:23;;;;;;;3.70;1.15;;;;;;;18.93;45.83;101595.50;4996692;28;96677;-26
2023/06/14 03:40:48;;;;;;;2.70;1.48;;;;;;;18.93;46.32;101598.25;4996335;28;96858;-27
2023/06/14 03:43:13;;;;;;;2.00;1.30;;;;;;;18.83;46.21;101592.66;4996242;28;97371;-26
2023/06/14 03:45:39;;;;;;;3.03;1.30;;;;;;;18.84;46.06;101596.28;4995940;28;97529;-30
2023/06/14 03:48:06;;;;;;;2.78;1.40;;;;;;;18.84;46.26;101594.38;4995130;28;96675;-27
2023/06/14 03:50:32;;;;;;;2.85;1.30;;;;;;;18.82;46.51;101601.00;4995377;28;96839;-28
2023/06/14 03:52:58;;;;;;;3.47;1.73;;;;;;;18.82;46.48;101603.75;4995911;28;99508;-27
2023/06/14 03:55:25;;;;;;;3.67;1.58;;;;;;;18.76;46.79;101604.22;4995691;28;99272;-26
2023/06/14 03:57:50;;;;;;;2.92;1.45;;;;;;;18.73;46.26;101601.75;4994387;28;96643;-26
2023/06/14 04:00:16;;;;;;;4.45;1.23;;;;;;;18.70;46.72;101594.66;4996163;28;96766;-26
2023/06/14 04:02:41;;;;;;;2.35;1.48;;;;;;;18.70;47.08;101604.75;4995405;28;99929;-27
2023/06/14 04:05:08;;;;;;;1.83;1.08;;;;;;;18.68;46.67;101604.88;4995371;28;111341;-27
2023/06/14 04:07:40;;;;;;;3.53;1.25;;;;;;;18.67;46.57;101611.38;4995933;28;96910;-26
2023/06/14 04:10:06;;;;;;;2.83;1.42;;;;;;;18.67;46.64;101611.38;4994494;28;96705;-26
2023/06/14 04:12:32;;;;;;;2.63;1.38;;;;;;;18.61;46.57;101600.91;4994148;28;102383;-27
2023/06/14 04:14:57;;;;;;;1.67;1.02;;;;;;;18.67;47.07;101614.13;4995744;28;97752;-26
2023/06/14 04:17:22;;;;;;;4.20;1.30;;;;;;;18.61;47.54;101609.13;4996020;28;96483;-26
2023/06/14 04:19:48;;;;;;;1.85;1.23;;;;;;;18.62;47.70;101613.66;4995969;28;96767;-28
2023/06/14 04:22:13;;;;;;;4.15;1.60;;;;;;;18.62;46.46;101617.25;4995064;28;98124;-27
2023/06/14 04:24:38;;;;;;;3.22;1.30;;;;;;;18.62;46.69;101622.75;4995159;28;107937;-26
2023/06/14 04:27:04;;;;;;;4.50;1.88;;;;;;;18.57;46.92;101619.50;4995003;28;99918;-27
2023/06/14 04:29:29;;;;;;;3.65;1.60;;;;;;;18.57;47.11;101619.50;4995596;28;96841;-27
2023/06/14 04:31:58;;;;;;;4.30;1.10;;;;;;;18.56;46.71;101611.41;4995201;28;98035;-27
2023/06/14 04:34:29;;;;;;;2.22;1.20;;;;;;;18.56;46.74;101623.25;4993091;28;101334;-26
2023/06/14 04:36:56;;;;;;;2.03;1.30;;;;;;;18.58;46.75;101626.72;4995631;28;96772;-28
2023/06/14 04:39:22;;;;;;;2.30;1.27;;;;;;;18.58;46.67;101625.88;4994420;28;96818;-26
2023/06/14 04:41:52;;;;;;;2.80;1.30;;;;;;;18.56;46.85;101617.75;4993703;28;100927;-27
2023/06/14 04:44:19;;;;;;;2.47;1.70;;;;;;;18.54;46.70;101614.25;4993521;28;100987;-26
2023/06/14 04:46:48;;;;;;;2.58;1.38;;;;;;;18.55;46.85;101610.53;4993347;28;96807;-26
2023/06/14 04:49:17;;;;;;;1.95;1.20;;;;;;;18.57;46.98;101619.50;4995359;28;96743;-26
2023/06/14 04:51:43;;;;;;;2.17;1.20;;;;;;;18.56;46.87;101616.88;4994905;28;99667;-26
2023/06/14 04:54:13;;;;;;;1.75;1.20;;;;;;;18.59;46.87;101620.25;4993690;28;100907;-26
2023/06/14 04:56:39;;;;;;;3.35;1.35;;;;;;;18.57;46.82;101625.00;4993782;28;96694;-28
2023/06/14 04:59:04;;;;;;;3.03;1.40;;;;;;;18.51;47.02;101614.53;4993336;28;96920;-26
2023/06/14 05:01:31;;;;;;;1.95;1.25;;;;;;;18.51;46.94;101614.53;4994938;28;98131;-26
2023/06/14 05:03:57;;;;;;;2.85;1.45;;;;;;;18.56;46.89;101620.50;4993709;28;101039;-27
2023/06/14 05:06:22;;;;;;;4.70;1.70;;;;;;;18.65;46.85;101630.72;4995187;28;96504;-27
2023/06/14 05:08:48;;;;;;;1.95;1.10;;;;;;;18.67;47.01;101628.72;4994988;28;96847;-27
2023/06/14 05:11:13;;;;;;;4.45;1.30;;;;;;;18.71;46.54;101628.44;4994068;28;97489;-26
2023/06/14 05:13:40;;;;;;;5.13;1.40;;;;;;;18.71;46.59;101629.34;4994735;28;97854;-27
2023/06/14 05:16:06;;;;;;;2.95;1.50;;;;;;;18.81;46.75;101634.97;4995041;28;96704;-26
2023/06/14 05:18:33;;;;;;;2.40;1.40;;;;;;;18.87;46.58;101632.56;4995058;28;96861;-28
2023/06/14 05:20:59;;;;;;;3.15;1.48;;;;;;;18.92;46.47;101643.16;4993313;28;100890;-27
2023/06/14 05:23:25;;;;;;;1.27;0.90;;;;;;;18.91;46.31;101646.91;4994682;28;97228;-26
2023/06/14 05:25:50;;;;;;;2.30;1.40;;;;;;;18.95;46.90;101642.03;4994712;28;96856;-27
2023/06/14 05:28:16;;;;;;;2.60;1.30;;;;;;;18.95;46.31;101648.41;4995305;28;96861;-26
2023/06/14 05:30:41;;;;;;;4.85;1.13;;;;;;;18.98;46.43;101650.88;4994296;28;99662;-26
2023/06/14 05:33:07;;;;;;;6.40;1.58;;;;;;;18.96;46.78;101641.03;4994224;28;97274;-26
2023/06/14 05:35:32;;;;;;;3.08;1.50;;;;;;;18.95;46.88;101647.50;4994331;28;96499;-27
2023/06/14 05:37:57;;;;;;;1.73;1.25;;;;;;;19.02;46.12;101655.13;4994809;28;96870;-26
2023/06/14 05:40:23;;;;;;;4.32;1.58;;;;;;;19.03;46.04;101647.75;4994067;28;99336;-26
2023/06/14 05:42:48;;;;;;;3.67;1.75;;;;;;;19.09;46.78;101647.22;4994228;28;99278;-27
2023/06/14 05:45:15;;;;;;;3.67;1.15;;;;;;;19.19;46.16;101650.94;4994729;28;96546;-26
2023/06/14 05:47:41;;;;;;;1.75;1.20;;;;;;;19.25;46.04;101649.53;4994359;28;96844;-26
2023/06/14 05:50:07;;;;;;;6.70;1.70;;;;;;;19.38;46.04;101663.06;4994251;28;97352;-26
2023/06/14 05:52:34;;;;;;;2.50;1.23;;;;;;;19.41;45.59;101651.84;4994593;28;97884;-26
2023/06/14 05:54:59;;;;;;;1.63;1.10;;;;;;;19.51;45.14;101653.66;4994218;28;96717;-26
2023/06/14 05:57:25;;;;;;;2.88;1.48;;;;;;;19.55;45.25;101659.78;4992984;28;96851;-26
2023/06/14 05:59:51;;;;;;;4.00;1.70;;;;;;;19.65;45.81;101660.69;4993723;28;97948;-26
2023/06/14 06:02:16;;;;;;;2.35;1.42;;;;;;;19.58;45.84;101650.38;4992553;28;101186;-27
2023/06/14 06:04:41;;;;;;;3.05;1.40;;;;;;;19.72;45.36;101650.09;4994352;28;96647;-27
2023/06/14 06:07:07;;;;;;;2.58;1.25;;;;;;;19.76;45.47;101651.56;4994121;28;96878;-26
2023/06/14 06:09:33;;;;;;;4.13;1.52;;;;;;;19.78;45.25;101656.91;4993906;28;97855;-27
2023/06/14 06:11:58;;;;;;;2.53;1.20;;;;;;;19.80;45.31;101663.16;4996311;28;97237;-26
2023/06/14 06:14:23;;;;;;;3.75;1.55;;;;;;;19.90;45.45;101664.06;5002490;28;96798;-27
2023/06/14 06:16:49;;;;;;;2.35;1.20;;;;;;;19.98;44.99;101660.66;5018114;28;96818;-26
2023/06/14 06:19:15;;;;;;;2.50;1.63;;;;;;;20.00;45.50;101648.53;5017470;28;97417;-26
2023/06/14 06:21:40;;;;;;;2.20;1.35;;;;;;;20.06;45.64;101660.84;5017375;28;96865;-26
2023/06/14 06:24:06;;;;;;;3.28;1.33;;;;;;;20.11;45.39;101658.56;5016721;28;96741;-26
2023/06/14 06:26:32;;;;;;;2.72;1.38;;;;;;;20.27;44.66;101675.44;5014684;28;96846;-26
2023/06/14 06:28:58;;;;;;;3.15;1.45;;;;;;;20.39;44.88;101676.22;5015751;28;100822;-27
2023/06/14 06:31:24;;;;;;;5.40;1.80;;;;;;;20.50;45.08;101675.25;5013884;28;100715;-27
2023/06/14 06:33:50;;;;;;;4.78;1.80;;;;;;;20.56;44.45;101674.72;5016715;28;96784;-27
2023/06/14 06:36:16;;;;;;;3.55;1.65;;;;;;;20.65;44.51;101668.38;5015917;28;96829;-28
2023/06/14 06:38:41;;;;;;;4.20;1.83;;;;;;;20.78;44.00;101665.38;5015428;28;100762;-27
2023/06/14 06:41:07;;;;;;;3.88;1.85;;;;;;;20.71;44.00;101687.09;5017673;28;96943;-27
2023/06/14 06:43:32;;;;;;;2.88;1.50;;;;;;;20.79;43.73;101675.38;5017408;28;96475;-27
2023/06/14 06:45:57;;;;;;;2.60;1.52;;;;;;;20.97;43.62;101678.31;5003455;28;98301;-27
2023/06/14 06:48:22;;;;;;;3.03;1.35;;;;;;;21.16;43.59;101682.97;4996079;28;111837;-27
2023/06/14 06:50:48;;;;;;;4.63;1.35;;;;;;;21.24;43.38;101696.03;4997121;28;100271;-27
2023/06/14 06:53:18;;;;;;;4.68;1.70;;;;;;;21.35;43.38;101695.91;5006649;28;102170;-27
2023/06/14 06:55:43;;;;;;;2.95;1.30;;;;;;;21.40;43.14;101699.13;5015608;28;96708;-27
2023/06/14 06:58:09;;;;;;;3.13;1.50;;;;;;;21.48;42.67;101695.69;5017072;28;96755;-27
2023/06/14 07:00:34;;;;;;;2.63;1.65;;;;;;;21.44;42.65;101697.84;5015941;28;118423;-27
2023/06/14 07:03:00;;;;;;;2.08;1.40;;;;;;;21.60;42.53;101697.25;5014060;28;97072;-27
2023/06/14 07:05:25;;;;;;;2.50;1.38;;;;;;;21.67;42.46;101700.31;4999320;28;96905;-27
2023/06/14 07:07:50;;;;;;;5.18;2.00;;;;;;;21.80;41.87;101696.22;5016521;28;97524;-27
2023/06/14 07:10:16;;;;;;;2.47;1.48;;;;;;;21.80;41.67;101707.25;5016236;28;99032;-28
2023/06/14 07:12:41;;;;;;;5.72;2.00;;;;;;;21.79;42.33;101705.53;5005468;28;96835;-26
2023/06/14 07:15:08;;;;;;;2.75;1.48;;;;;;;21.97;41.85;101694.59;4996419;28;101672;-27
2023/06/14 07:17:33;;;;;;;5.40;1.70;;;;;;;22.14;41.74;101709.50;4994984;28;100875;-26
2023/06/14 07:20:00;;;;;;;2.83;1.42;;;;;;;22.23;41.87;101710.53;4996413;28;99322;-28
2023/06/14 07:22:26;;;;;;;2.03;1.40;;;;;;;22.43;41.35;101706.72;4995128;28;96717;-27
2023/06/14 07:24:51;;;;;;;3.17;1.50;;;;;;;22.60;41.01;101715.22;4996536;28;96827;-27
2023/06/14 07:27:17;;;;;;;3.10;1.85;;;;;;;22.70;41.13;101707.75;4995646;28;99754;-26
2023/06/14 07:29:42;;;;;;;3.30;1.70;;;;;;;22.87;41.09;101706.94;4996939;28;97266;-27
2023/06/14 07:32:07;;;;;;;3.55;1.83;;;;;;;23.06;40.80;101708.75;4995498;28;96504;-27
2023/06/14 07:34:33;;;;;;;6.53;2.10;;;;;;;23.09;40.65;101705.66;4996095;28;96849;-27
2023/06/14 07:36:58;;;;;;;3.25;1.80;;;;;;;23.19;40.38;101710.25;4995683;28;97280;-27
2023/06/14 07:39:23;;;;;;;3.63;1.67;;;;;;;23.25;40.11;101710.50;4995461;28;112537;-27
2023/06/14 07:41:48;;;;;;;3.15;1.40;;;;;;;23.36;39.53;101720.47;4996596;28;96503;-27
2023/06/14 07:44:14;;;;;;;7.13;1.55;;;;;;;23.39;39.59;101722.94;4996324;28;101487;-27
2023/06/14 07:46:40;;;;;;;4.32;1.63;;;;;;;23.45;39.12;101724.19;4995769;28;101337;-27
2023/06/14 07:49:06;;;;;;;4.80;1.67;;;;;;;23.58;39.74;101732.97;4994419;28;101180;-27
2023/06/14 07:51:31;;;;;;;2.45;1.60;;;;;;;23.61;38.85;101729.88;4994756;28;96557;-26
2023/06/14 07:54:00;;;;;;;3.17;1.67;;;;;;;23.60;39.59;101725.38;4996163;28;97217;-27
2023/06/14 07:56:26;;;;;;;3.42;1.60;;;;;;;23.52;39.00;101722.53;4994420;28;100968;-26
2023/06/14 07:58:51;;;;;;;3.40;1.52;;;;;;;23.62;39.12;101727.97;4995848;28;96552;-27
2023/06/14 08:01:16;;;;;;;2.53;1.35;;;;;;;23.76;38.68;101729.34;4994502;28;114071;-27
2023/06/14 08:03:42;;;;;;;4.80;1.50;;;;;;;23.90;38.83;101731.53;4995895;28;96619;-26
2023/06/14 08:06:07;;;;;;;2.80;1.27;;;;;;;23.98;39.13;101728.88;4995193;28;112287;-27
2023/06/14 08:08:33;;;;;;;2.85;1.63;;;;;;;24.16;38.65;101728.81;4995375;28;99172;-28
2023/06/14 08:10:58;;;;;;;3.80;1.60;;;;;;;24.34;38.83;101728.78;4996018;28;96432;-27
2023/06/14 08:13:24;;;;;;;3.63;1.50;;;;;;;24.38;37.89;101725.50;4996096;28;96804;-26
2023/06/14 08:15:49;;;;;;;2.72;1.50;;;;;;;24.48;38.09;101728.19;4995452;28;99244;-27
2023/06/14 08:18:15;;;;;;;2.60;1.38;;;;;;;24.63;37.30;101727.59;4996070;28;97774;-27
2023/06/14 08:20:40;;;;;;;2.78;1.67;;;;;;;24.65;37.14;101728.28;4995691;28;96568;-27
2023/06/14 08:23:05;;;;;;;2.53;1.27;;;;;;;24.74;37.37;101730.03;4995640;28;96694;-27
2023/06/14 08:25:31;;;;;;;3.22;1.67;;;;;;;24.95;37.38;101741.56;4994792;28;97948;-27
2023/06/14 08:27:56;;;;;;;3.35;1.83;;;;;;;24.76;37.25;101733.53;4995419;28;97123;-27
2023/06/14 08:30:22;;;;;;;2.58;1.58;;;;;;;24.94;36.38;101742.63;4995443;28;96640;-27
2023/06/14 08:32:47;;;;;;;3.17;1.38;;;;;;;24.94;35.90;101750.06;4994201;28;96984;-27
2023/06/14 08:35:13;;;;;;;3.20;1.50;;;;;;;24.93;36.44;101737.22;4994323;28;96982;-28
2023/06/14 08:37:41;;;;;;;3.72;1.52;;;;;;;25.03;36.42;101737.97;4995065;28;97783;-27
2023/06/14 08:40:19;;;;;;;2.75;1.58;;;;;;;25.01;35.76;101732.59;4995366;28;96569;-27
2023/06/14 08:42:46;;;;;;;4.78;1.45;;;;;;;25.23;36.00;101757.13;4995916;28;96512;-27
2023/06/14 08:45:11;;;;;;;4.28;1.80;;;;;;;25.22;35.05;101736.88;4993491;28;101631;-27
2023/06/14 08:47:37;;;;;;;3.67;1.45;;;;;;;25.30;34.99;101736.00;4994783;28;99204;-28
2023/06/14 08:50:03;;;;;;;2.72;1.40;;;;;;;25.43;34.99;101745.59;4994780;28;96612;-27
2023/06/14 08:52:33;;;;;;;2.58;1.48;;;;;;;25.41;35.13;101738.47;4993859;28;96941;-27
2023/06/14 08:55:00;;;;;;;2.25;1.40;;;;;;;25.59;35.02;101733.63;4993593;28;100556;-26
2023/06/14 08:57:30;;;;;;;5.45;1.52;;;;;;;25.64;34.37;101741.44;4994607;28;99079;-27
2023/06/14 08:59:56;;;;;;;4.30;1.70;;;;;;;25.82;34.58;101744.94;4995700;28;96551;-27
2023/06/14 09:02:22;;;;;;;3.72;1.70;;;;;;;26.00;34.54;101744.78;4993759;28;96592;-27
2023/06/14 09:04:49;;;;;;;3.65;1.98;;;;;;;26.00;33.98;101743.91;4994859;28;98406;-27
2023/06/14 09:07:15;;;;;;;4.90;1.48;;;;;;;26.01;34.30;101738.19;4993591;28;100769;-27
2023/06/14 09:09:41;;;;;;;3.30;1.60;;;;;;;26.05;34.31;101738.69;4995180;28;96598;-29
2023/06/14 09:12:10;;;;;;;5.50;1.80;;;;;;;26.21;33.64;101735.91;4993733;28;96934;-27
2023/06/14 09:14:38;;;;;;;2.38;1.48;;;;;;;26.31;33.35;101745.97;4993996;28;99456;-27
2023/06/14 09:17:04;;;;;;;5.40;1.60;;;;;;;26.30;33.69;101747.88;4994417;28;99354;-27
2023/06/14 09:19:29;;;;;;;7.50;1.83;;;;;;;26.35;32.41;101741.81;4993444;28;96580;-27
2023/06/14 09:21:55;;;;;;;3.63;1.55;;;;;;;26.24;32.75;101735.56;4994804;28;96869;-26
2023/06/14 09:24:20;;;;;;;4.70;1.83;;;;;;;26.30;33.27;101741.47;4993186;28;100723;-28
2023/06/14 09:26:51;;;;;;;2.80;1.45;;;;;;;26.42;32.82;101749.25;5006013;28;97846;-26
2023/06/14 09:29:17;;;;;;;5.07;1.58;;;;;;;26.47;31.99;101744.03;5013440;28;96748;-27
2023/06/14 09:31:43;;;;;;;1.85;1.38;;;;;;;26.55;32.12;101751.50;5002905;28;96878;-27
2023/06/14 09:34:09;;;;;;;2.03;1.40;;;;;;;26.54;32.76;101751.69;4999300;28;99464;-27
2023/06/14 09:36:34;;;;;;;2.25;1.40;;;;;;;26.66;31.93;101753.91;5014649;28;97465;-27
2023/06/14 09:39:04;;;;;;;4.03;1.77;;;;;;;26.72;31.99;101757.91;5014329;28;96585;-27
2023/06/14 09:41:39;;;;;;;4.30;1.50;;;;;;;26.77;30.37;101766.56;5014598;28;96646;-27
2023/06/14 09:44:08;;;;;;;4.85;1.65;;;;;;;26.88;31.85;101754.19;5014036;28;97977;-26
2023/06/14 09:46:35;;;;;;;3.50;1.67;;;;;;;27.02;31.39;101758.97;5014450;28;101455;-27
2023/06/14 09:49:01;;;;;;;3.13;1.25;;;;;;;27.13;30.91;101748.53;5016678;28;96645;-26
2023/06/14 09:51:30;;;;;;;2.72;1.30;;;;;;;27.15;30.47;101743.63;5018398;28;96842;-27
2023/06/14 09:54:04;;;;;;;2.03;1.30;;;;;;;27.37;30.82;101758.69;5016397;28;101094;-26
2023/06/14 09:56:33;;;;;;;1.90;1.33;;;;;;;27.63;30.94;101756.41;5017917;28;99458;-27
2023/06/14 09:58:59;;;;;;;3.58;1.48;;;;;;;27.68;30.80;101753.09;5017937;28;96582;-27
2023/06/14 10:01:27;;;;;;;2.10;1.20;;;;;;;27.71;30.30;101759.13;5017958;28;96762;-26
2023/06/14 10:04:00;;;;;;;2.50;1.35;;;;;;;27.87;30.32;101744.25;5015773;28;101001;-27
2023/06/14 10:06:28;;;;;;;4.82;1.50;;;;;;;27.89;30.32;101753.28;5017633;28;97926;-27
2023/06/14 10:08:59;;;;;;;4.40;1.50;;;;;;;28.17;30.13;101753.56;5016405;28;96731;-26
2023/06/14 10:11:28;;;;;;;3.90;1.30;;;;;;;28.15;29.89;101752.91;5017684;28;96746;-26
2023/06/14 10:13:57;;;;;;;1.88;0.98;;;;;;;28.33;28.84;101755.31;5017552;28;97906;-27
2023/06/14 10:16:31;;;;;;;5.68;1.60;;;;;;;28.22;28.82;101752.13;5016076;28;100766;-27
2023/06/14 10:19:09;;;;;;;3.45;1.08;;;;;;;28.20;27.45;101757.00;5016366;28;96740;-26
2023/06/14 10:21:57;;;;;;;2.25;1.25;;;;;;;28.05;27.38;101757.84;5016436;28;96732;-26
2023/06/14 10:24:30;;;;;;;2.35;1.15;;;;;;;27.83;27.90;101744.81;5017435;28;98384;-26
2023/06/14 10:26:58;;;;;;;1.48;1.10;;;;;;;27.87;28.13;101746.19;5016901;28;98624;-26
2023/06/14 10:29:24;;;;;;;2.08;0.95;;;;;;;27.99;27.16;101757.75;5016842;28;96664;-27
2023/06/14 10:31:55;;;;;;;1.25;0.95;;;;;;;28.05;26.82;101740.28;5017517;28;96835;-27
2023/06/14 10:34:28;;;;;;;4.63;1.13;;;;;;;27.97;26.10;101749.56;5014808;28;100869;-27
2023/06/14 10:37:12;;;;;;;1.65;1.25;;;;;;;28.08;26.45;101748.25;5015613;28;100717;-27
2023/06/14 10:39:48;;;;;;;1.83;1.10;;;;;;;28.05;26.70;101748.63;5017274;28;96496;-27
2023/06/14 10:42:14;;;;;;;2.22;1.30;;;;;;;28.23;27.63;101749.16;5017667;28;96631;-27
2023/06/14 10:44:43;;;;;;;1.25;1.00;;;;;;;28.34;27.25;101750.59;5015315;28;101061;-26
2023/06/14 10:47:28;;;;;;;2.80;1.13;;;;;;;28.30;25.80;101744.56;5015630;28;100856;-27
2023/06/14 10:49:56;;;;;;;3.17;1.20;;;;;;;28.46;26.75;101738.00;5017056;28;96659;-27
2023/06/14 10:52:25;;;;;;;2.92;1.30;;;;;;;28.75;27.55;101756.66;5017114;28;96833;-26
2023/06/14 10:55:17;;;;;;;2.72;1.15;;;;;;;28.84;26.28;101759.31;5014891;28;100942;-27
2023/06/14 10:57:55;;;;;;;1.08;0.70;;;;;;;28.62;26.21;101750.88;5016484;28;97818;-26
2023/06/14 11:00:23;;;;;;;7.93;0.95;;;;;;;28.79;26.69;101749.63;5017341;28;96522;-26
2023/06/14 11:03:08;;;;;;;2.50;1.20;;;;;;;28.87;26.35;101758.97;5016885;28;96856;-27
2023/06/14 11:05:47;;;;;;;3.20;0.90;;;;;;;28.65;24.96;101739.34;5016460;28;98029;-27
2023/06/14 11:08:31;;;;;;;0.75;0.65;;;;;;;28.83;25.94;101749.25;5015368;28;100818;-27
2023/06/14 11:11:00;;;;;;;1.77;0.98;;;;;;;28.91;25.24;101749.13;5017005;28;96469;-27
2023/06/14 11:13:26;;;;;;;1.48;1.00;;;;;;;28.96;26.62;101754.97;5015857;28;96939;-27
2023/06/14 11:15:57;;;;;;;1.08;0.70;;;;;;;29.15;25.55;101754.44;5016393;28;97912;-27
2023/06/14 11:18:27;;;;;;;1.33;0.93;;;;;;;29.01;26.03;101741.34;5015151;28;101103;-27
2023/06/14 11:20:53;;;;;;;1.73;0.88;;;;;;;29.19;26.11;101746.53;5014824;28;96691;-26
2023/06/14 11:23:18;;;;;;;1.20;0.77;;;;;;;29.30;26.08;101734.00;5015263;28;96937;-27